Time;durP1;ratioP1;P1;durP2;ratioP2;P2;SDS_P1;SDS_P2;PMS_P1;PMS_P2;Temp;Humidity;BMP_temperature;BMP_pressure;BME280_temperature;BME280_humidity;BME280_pressure;Samples;Min_cycle;Max_cycle;Signal;HPM_P1;HPM_P2
2024/02/23 00:01:31;;;;;;;1.23;0.10;;;;;;;6.88;100.00;96808.31;5053024;28;20031;-78
2024/02/23 00:03:57;;;;;;;1.75;0.20;;;;;;;6.88;100.00;96812.88;5067393;28;20083;-79
2024/02/23 00:06:27;;;;;;;0.32;0.05;;;;;;;6.82;100.00;96814.63;5046551;28;20052;-79
2024/02/23 00:08:54;;;;;;;1.10;0.20;;;;;;;6.90;100.00;96821.53;5049301;28;20025;-78
2024/02/23 00:11:21;;;;;;;0.52;0.30;;;;;;;6.89;100.00;96844.06;5048424;28;20059;-79
2024/02/23 00:13:46;;;;;;;2.17;0.40;;;;;;;6.88;100.00;96842.44;5042258;28;20027;-79
2024/02/23 00:16:12;;;;;;;1.00;0.30;;;;;;;6.84;100.00;96834.03;5035471;28;20048;-79
2024/02/23 00:18:38;;;;;;;1.10;0.20;;;;;;;6.86;100.00;96841.84;5044731;28;20103;-80
2024/02/23 00:21:03;;;;;;;1.55;0.30;;;;;;;6.83;100.00;96835.06;5038243;28;20251;-79
2024/02/23 00:23:29;;;;;;;0.88;0.65;;;;;;;6.80;100.00;96817.50;5050555;28;20036;-79
2024/02/23 00:25:54;;;;;;;1.08;0.10;;;;;;;6.83;100.00;96823.50;5047044;28;20021;-79
2024/02/23 00:28:19;;;;;;;1.58;0.10;;;;;;;6.72;100.00;96817.84;5050828;28;20021;-78
2024/02/23 00:30:45;;;;;;;4.57;0.30;;;;;;;6.79;100.00;96842.75;5050108;28;20056;-80
2024/02/23 00:33:10;;;;;;;3.47;0.28;;;;;;;6.73;100.00;96854.44;5041213;28;20029;-79
2024/02/23 00:35:35;;;;;;;2.78;0.38;;;;;;;6.63;100.00;96824.59;5041884;28;20021;-79
2024/02/23 00:38:00;;;;;;;2.85;0.73;;;;;;;6.66;100.00;96847.50;5053933;28;20069;-80
2024/02/23 00:40:26;;;;;;;0.52;0.13;;;;;;;6.63;100.00;96842.56;5042715;28;20025;-80
2024/02/23 00:42:51;;;;;;;0.60;0.08;;;;;;;6.69;100.00;96845.16;5045493;28;20021;-79
2024/02/23 00:45:17;;;;;;;4.25;0.60;;;;;;;6.76;100.00;96867.41;5045931;28;20020;-79
2024/02/23 00:47:43;;;;;;;1.35;0.22;;;;;;;6.68;100.00;96859.66;5049295;28;20327;-81
2024/02/23 00:50:09;;;;;;;3.92;0.45;;;;;;;6.75;100.00;96886.44;5046260;28;20048;-80
2024/02/23 00:52:34;;;;;;;4.47;0.32;;;;;;;6.74;100.00;96879.44;5040866;28;20045;-80
2024/02/23 00:55:00;;;;;;;3.45;0.20;;;;;;;6.70;100.00;96876.34;5051532;28;20025;-80
2024/02/23 00:57:29;;;;;;;3.38;0.20;;;;;;;6.53;100.00;96860.03;5043246;28;20025;-80
2024/02/23 00:59:55;;;;;;;;;;;;;;;6.69;100.00;96866.66;5057689;28;20106;-80
2024/02/23 01:02:20;;;;;;;1.48;0.20;;;;;;;6.51;100.00;96853.25;5049739;28;19909;-80
2024/02/23 01:04:46;;;;;;;3.20;0.30;;;;;;;6.53;100.00;96859.22;5049160;28;20020;-81
2024/02/23 01:07:11;;;;;;;5.35;0.50;;;;;;;6.57;100.00;96882.72;5045596;28;20028;-80
2024/02/23 01:09:36;;;;;;;0.40;0.20;;;;;;;6.29;100.00;96864.47;5047533;28;20020;-80
2024/02/23 01:12:01;;;;;;;2.35;0.20;;;;;;;6.56;100.00;96917.88;5053695;28;20021;-80
2024/02/23 01:14:27;;;;;;;4.70;0.40;;;;;;;6.49;100.00;96893.75;5047374;28;20391;-80
2024/02/23 01:16:52;;;;;;;3.80;0.30;;;;;;;6.50;100.00;96891.94;5047861;28;20017;-80
2024/02/23 01:19:18;;;;;;;1.63;0.20;;;;;;;6.47;100.00;96885.13;5048663;28;20024;-81
2024/02/23 01:21:44;;;;;;;2.95;0.30;;;;;;;6.42;100.00;96889.50;5042402;28;20092;-80
2024/02/23 01:24:09;;;;;;;1.92;0.30;;;;;;;6.38;100.00;96889.16;5046613;28;20020;-80
2024/02/23 01:26:34;;;;;;;2.70;0.40;;;;;;;6.42;100.00;96894.88;5050538;28;20012;-81
2024/02/23 01:28:59;;;;;;;1.15;0.25;;;;;;;6.36;100.00;96875.13;5052958;28;20058;-81
2024/02/23 01:31:25;;;;;;;5.03;0.50;;;;;;;6.47;100.00;96885.13;5042138;28;20022;-81
2024/02/23 01:33:51;;;;;;;1.17;0.50;;;;;;;6.44;100.00;96882.88;5045595;28;20201;-81
2024/02/23 01:36:17;;;;;;;2.00;0.20;;;;;;;6.26;100.00;96872.13;5050861;28;20045;-81
2024/02/23 01:38:43;;;;;;;2.47;0.30;;;;;;;6.43;100.00;96896.53;5045578;28;20027;-80
2024/02/23 01:41:08;;;;;;;0.65;0.13;;;;;;;6.51;100.00;96905.13;5050195;28;20275;-80
2024/02/23 01:43:34;;;;;;;2.28;0.38;;;;;;;6.41;100.00;96898.63;5044170;28;20036;-80
2024/02/23 01:45:59;;;;;;;3.70;0.32;;;;;;;6.36;100.00;96892.03;5048538;28;20037;-80
2024/02/23 01:48:25;;;;;;;1.70;0.17;;;;;;;6.33;100.00;96905.94;5059450;28;20030;-80
2024/02/23 01:50:51;;;;;;;6.13;0.40;;;;;;;6.27;100.00;96897.97;5044290;28;20088;-80
2024/02/23 01:53:19;;;;;;;4.55;0.30;;;;;;;6.20;100.00;96903.38;5045825;28;20025;-80
2024/02/23 01:55:45;;;;;;;4.10;0.32;;;;;;;6.36;100.00;96937.69;5047881;28;20049;-79
2024/02/23 01:58:11;;;;;;;4.28;0.90;;;;;;;6.21;100.00;96920.31;5049224;28;20216;-80
2024/02/23 02:00:36;;;;;;;3.47;0.43;;;;;;;6.20;100.00;96927.53;5044343;28;20032;-80
2024/02/23 02:03:03;;;;;;;1.73;0.30;;;;;;;6.26;100.00;96918.63;5040457;28;20332;-80
2024/02/23 02:05:28;;;;;;;5.93;0.50;;;;;;;6.27;100.00;96928.31;5045285;28;20028;-80
2024/02/23 02:13:10;;;;;;;2.63;0.28;;;;;;;6.54;100.00;96933.41;5049505;28;20048;-59
2024/02/23 02:15:35;;;;;;;1.55;0.35;;;;;;;6.63;100.00;96937.44;5067525;28;20096;-59
2024/02/23 02:18:01;;;;;;;3.58;0.30;;;;;;;6.59;100.00;96950.50;5059866;28;20135;-59
2024/02/23 02:20:28;;;;;;;2.85;0.30;;;;;;;6.60;100.00;96943.25;5051781;28;20171;-59
2024/02/23 02:22:53;;;;;;;2.40;0.30;;;;;;;6.62;100.00;96940.34;5052508;28;20029;-59
2024/02/23 02:25:19;;;;;;;3.38;0.43;;;;;;;6.59;100.00;96952.34;5055830;28;20037;-58
2024/02/23 02:27:45;;;;;;;1.42;0.20;;;;;;;6.64;100.00;96968.63;5062620;28;20073;-58
2024/02/23 02:30:12;;;;;;;0.80;0.20;;;;;;;6.52;100.00;96959.66;5052202;28;20065;-58
2024/02/23 02:32:37;;;;;;;0.25;0.22;;;;;;;6.52;100.00;96967.72;5058439;28;20062;-59
2024/02/23 02:35:03;;;;;;;3.05;0.40;;;;;;;6.38;100.00;96968.91;5064537;28;20025;-59
2024/02/23 02:37:28;;;;;;;0.47;0.20;;;;;;;6.35;100.00;96959.44;5059112;28;20027;-58
2024/02/23 02:39:54;;;;;;;2.28;0.20;;;;;;;6.20;100.00;96956.28;5062921;28;20104;-59
2024/02/23 02:42:19;;;;;;;1.10;0.20;;;;;;;6.22;100.00;96968.44;5049671;28;20067;-58
2024/02/23 02:44:45;;;;;;;0.93;0.20;;;;;;;6.17;100.00;96970.97;5063475;28;20033;-58
2024/02/23 02:47:10;;;;;;;2.85;0.45;;;;;;;6.13;100.00;96973.28;5058876;28;20020;-58
2024/02/23 02:49:35;;;;;;;1.35;0.10;;;;;;;6.07;100.00;96973.31;5060566;28;20025;-59
2024/02/23 02:52:01;;;;;;;0.80;0.10;;;;;;;6.03;100.00;96966.75;5048110;28;20032;-58
2024/02/23 02:54:26;;;;;;;1.80;0.30;;;;;;;5.98;100.00;96948.63;5067795;28;20429;-58
2024/02/23 02:56:54;;;;;;;5.60;0.30;;;;;;;5.90;100.00;96947.00;5059126;28;20415;-58
2024/02/23 02:59:20;;;;;;;1.70;0.20;;;;;;;5.90;100.00;96962.28;5050727;28;20077;-58
2024/02/23 03:01:46;;;;;;;3.60;0.40;;;;;;;5.85;100.00;96962.94;5056883;28;20020;-59
2024/02/23 03:04:12;;;;;;;4.90;0.20;;;;;;;5.82;100.00;96976.78;5067337;28;20032;-59
2024/02/23 03:06:38;;;;;;;0.98;0.25;;;;;;;5.82;100.00;96982.16;5060587;28;20128;-59
2024/02/23 03:09:03;;;;;;;0.75;0.13;;;;;;;5.80;100.00;96978.88;5043606;28;20103;-59
2024/02/23 03:11:29;;;;;;;2.33;0.35;;;;;;;5.73;100.00;96972.72;5065462;28;20039;-59
2024/02/23 03:13:54;;;;;;;1.00;0.40;;;;;;;5.81;100.00;96991.22;5057897;28;20078;-58
2024/02/23 03:16:23;;;;;;;0.52;0.20;;;;;;;5.77;100.00;96992.72;5055696;28;20056;-59
2024/02/23 03:18:48;;;;;;;2.97;0.30;;;;;;;5.78;100.00;96985.50;5047566;28;20028;-59
2024/02/23 03:21:15;;;;;;;2.83;0.17;;;;;;;5.80;100.00;96964.63;5054549;28;20395;-59
2024/02/23 03:23:41;;;;;;;0.75;0.20;;;;;;;5.85;100.00;96968.31;5061236;28;20087;-59
2024/02/23 03:26:09;;;;;;;0.43;0.10;;;;;;;5.69;100.00;96969.66;5063096;28;20044;-58
2024/02/23 03:28:35;;;;;;;0.40;0.20;;;;;;;5.79;100.00;96974.56;5059745;28;20434;-59
2024/02/23 03:31:00;;;;;;;0.82;0.10;;;;;;;5.81;100.00;96959.03;5052913;28;20112;-58
2024/02/23 03:33:26;;;;;;;2.78;0.25;;;;;;;5.83;100.00;96956.97;5056171;28;20542;-59
2024/02/23 03:35:51;;;;;;;0.25;0.20;;;;;;;5.83;100.00;96959.63;5065673;28;20083;-59
2024/02/23 03:38:17;;;;;;;2.08;0.30;;;;;;;5.79;100.00;96971.88;5050969;28;20115;-60
2024/02/23 03:40:42;;;;;;;0.57;0.25;;;;;;;5.78;100.00;96977.44;5054429;28;20396;-60
2024/02/23 03:43:08;;;;;;;0.65;0.17;;;;;;;5.65;100.00;96962.25;5066127;28;20021;-60
2024/02/23 03:45:33;;;;;;;3.03;0.28;;;;;;;5.73;100.00;96961.97;5057555;28;20463;-60
2024/02/23 03:47:59;;;;;;;1.80;0.43;;;;;;;5.73;100.00;96961.97;5053675;28;20744;-60
2024/02/23 03:50:25;;;;;;;1.35;0.20;;;;;;;5.81;100.00;96967.09;5061848;28;20028;-59
2024/02/23 03:52:50;;;;;;;0.70;0.30;;;;;;;5.74;100.00;96979.75;5050144;28;20044;-60
2024/02/23 03:55:15;;;;;;;1.23;0.35;;;;;;;5.71;100.00;96986.38;5038179;28;20024;-60
2024/02/23 03:57:41;;;;;;;0.60;0.40;;;;;;;5.72;100.00;96982.63;5059226;28;20075;-60
2024/02/23 04:00:07;;;;;;;1.45;0.50;;;;;;;5.72;100.00;96993.38;5059613;28;20028;-59
2024/02/23 04:02:33;;;;;;;5.72;0.32;;;;;;;5.64;100.00;97000.88;5066794;28;20454;-59
2024/02/23 04:04:59;;;;;;;0.25;0.17;;;;;;;5.71;100.00;96999.78;5057532;28;20044;-60
2024/02/23 04:07:24;;;;;;;1.02;0.20;;;;;;;5.72;100.00;96997.91;5059346;28;20379;-60
2024/02/23 04:09:52;;;;;;;3.75;0.40;;;;;;;5.78;100.00;97015.00;5068749;28;20020;-60
2024/02/23 04:12:19;;;;;;;1.00;0.10;;;;;;;5.80;100.00;97005.69;5065479;28;20020;-60
2024/02/23 04:14:45;;;;;;;0.38;0.10;;;;;;;5.75;100.00;96988.63;5044846;28;20048;-60
2024/02/23 04:17:11;;;;;;;0.80;0.10;;;;;;;5.82;100.00;96987.53;5057729;28;20064;-60
2024/02/23 04:19:37;;;;;;;1.30;0.17;;;;;;;5.84;100.00;96984.59;5044942;28;20026;-60
2024/02/23 04:22:06;;;;;;;1.38;0.20;;;;;;;5.80;100.00;96997.66;5056665;28;20021;-60
2024/02/23 04:24:31;;;;;;;2.72;0.25;;;;;;;5.83;100.00;96999.06;5061073;28;20028;-60
2024/02/23 04:26:56;;;;;;;1.23;0.20;;;;;;;5.83;100.00;97002.56;5054407;28;20389;-60
2024/02/23 04:29:22;;;;;;;2.80;0.30;;;;;;;5.84;100.00;96990.81;5056747;28;20391;-60
2024/02/23 04:31:47;;;;;;;1.42;0.20;;;;;;;5.79;100.00;96998.69;5048831;28;20029;-60
2024/02/23 04:34:15;;;;;;;1.25;0.20;;;;;;;5.76;100.00;96996.44;5043230;28;20564;-60
2024/02/23 04:36:40;;;;;;;5.03;0.30;;;;;;;5.67;100.00;96984.31;5057526;28;20028;-60
2024/02/23 04:39:05;;;;;;;1.02;0.22;;;;;;;5.67;100.00;96984.31;5052107;28;20081;-60
2024/02/23 04:44:54;;;;;;;0.95;0.22;;;;;;;5.73;100.00;96986.13;5053364;28;20079;-60
2024/02/23 04:47:20;;;;;;;4.15;0.20;;;;;;;5.74;100.00;96979.75;5034714;28;20037;-60
2024/02/23 04:49:45;;;;;;;2.58;0.30;;;;;;;5.74;100.00;96974.38;5051947;28;20091;-60
2024/02/23 04:52:11;;;;;;;0.65;0.13;;;;;;;5.77;100.00;96986.53;5051374;28;20369;-60
2024/02/23 04:54:36;;;;;;;2.40;0.20;;;;;;;5.75;100.00;96981.38;5059924;28;20119;-60
2024/02/23 04:57:02;;;;;;;0.20;0.20;;;;;;;5.74;100.00;96977.06;5062234;28;20416;-60
2024/02/23 04:59:28;;;;;;;1.92;0.28;;;;;;;5.85;100.00;96978.22;5060188;28;20028;-60
2024/02/23 05:01:53;;;;;;;1.77;0.20;;;;;;;5.84;100.00;96987.28;5059676;28;20384;-60
2024/02/23 05:04:19;;;;;;;0.45;0.20;;;;;;;5.78;100.00;96972.88;5051068;28;20048;-60
2024/02/23 05:06:44;;;;;;;2.47;0.25;;;;;;;5.74;100.00;96973.53;5046391;28;20036;-59
2024/02/23 05:09:11;;;;;;;0.98;0.20;;;;;;;5.71;100.00;96978.31;5052295;28;20025;-59
2024/02/23 05:11:37;;;;;;;2.92;0.40;;;;;;;5.67;100.00;96962.88;5044195;28;20029;-59
2024/02/23 05:14:02;;;;;;;2.25;0.22;;;;;;;5.67;100.00;96963.69;5040410;28;20040;-59
2024/02/23 05:16:28;;;;;;;4.88;0.50;;;;;;;5.60;100.00;96962.91;5032192;28;20025;-59
2024/02/23 05:18:57;;;;;;;1.27;0.55;;;;;;;5.49;100.00;96961.72;5049907;28;20032;-58
2024/02/23 05:21:31;;;;;;;1.52;0.30;;;;;;;5.41;100.00;96962.00;5052073;28;20025;-59
2024/02/23 05:23:57;;;;;;;2.83;0.40;;;;;;;5.10;100.00;96935.97;5044736;28;20025;-58
2024/02/23 05:26:23;;;;;;;1.88;0.45;;;;;;;5.15;100.00;96959.47;5053104;28;20036;-59
2024/02/23 05:28:52;;;;;;;1.17;0.40;;;;;;;5.10;100.00;96964.66;5029794;28;20061;-59
2024/02/23 05:31:40;;;;;;;;;;;;;;;5.20;100.00;96962.34;5040918;28;20033;-59
2024/02/23 05:34:20;;;;;;;1.90;0.25;;;;;;;5.19;100.00;96966.06;5058104;28;19974;-59
2024/02/23 05:36:46;;;;;;;4.00;0.30;;;;;;;5.18;100.00;96981.28;5055506;28;20059;-59
2024/02/23 05:39:15;;;;;;;2.20;0.20;;;;;;;5.16;100.00;96982.53;5046010;28;20544;-58
2024/02/23 05:41:41;;;;;;;5.13;0.20;;;;;;;5.15;100.00;96979.06;5048837;28;20052;-59
2024/02/23 05:44:07;;;;;;;1.08;0.20;;;;;;;5.26;100.00;96988.28;5052774;28;20030;-59
2024/02/23 05:46:34;;;;;;;5.10;0.40;;;;;;;5.27;100.00;96988.06;5049622;28;20026;-58
2024/02/23 05:49:00;;;;;;;0.98;0.30;;;;;;;5.23;100.00;96994.88;5056041;28;20399;-59
2024/02/23 05:51:29;;;;;;;4.53;0.45;;;;;;;5.22;100.00;96998.63;5059553;28;20028;-59
2024/02/23 05:53:55;;;;;;;2.03;0.40;;;;;;;5.23;100.00;97002.13;5054522;28;20132;-59
2024/02/23 05:56:21;;;;;;;3.65;0.38;;;;;;;5.21;100.00;96990.78;5060834;28;20020;-59
2024/02/23 05:58:47;;;;;;;4.88;0.85;;;;;;;5.21;100.00;96990.78;5051795;28;20048;-58
2024/02/23 06:01:15;;;;;;;4.22;0.60;;;;;;;5.19;100.00;97001.72;5048298;28;20045;-59
2024/02/23 06:03:40;;;;;;;3.10;0.60;;;;;;;5.21;100.00;97001.50;5031828;28;20112;-58
2024/02/23 06:06:08;;;;;;;1.08;0.38;;;;;;;5.20;100.00;97002.53;5063019;28;20108;-58
2024/02/23 06:08:34;;;;;;;2.53;0.52;;;;;;;5.21;100.00;97007.72;5050440;28;20029;-57
2024/02/23 06:11:00;;;;;;;2.20;0.60;;;;;;;5.22;100.00;97001.28;5056494;28;20028;-57
2024/02/23 06:13:25;;;;;;;1.67;0.45;;;;;;;5.22;100.00;97005.84;5047600;28;20033;-58
2024/02/23 06:15:51;;;;;;;10.38;3.20;;;;;;;5.24;100.00;97014.50;5048042;28;20120;-57
2024/02/23 06:18:16;;;;;;;19.63;6.10;;;;;;;5.20;100.00;97010.59;5044211;28;20492;-57
2024/02/23 06:20:42;;;;;;;11.77;5.43;;;;;;;5.23;100.00;97016.34;5050635;28;20475;-57
2024/02/23 06:23:07;;;;;;;8.25;3.00;;;;;;;5.23;100.00;97013.66;5038844;28;20028;-57
2024/02/23 06:25:32;;;;;;;4.93;1.70;;;;;;;5.28;100.00;97024.56;5034702;28;20036;-57
2024/02/23 06:27:58;;;;;;;4.25;1.23;;;;;;;5.24;100.00;97027.91;5061159;28;20029;-57
2024/02/23 06:30:23;;;;;;;3.42;1.40;;;;;;;5.25;100.00;97034.91;5058757;28;20037;-58
2024/02/23 06:32:48;;;;;;;7.43;1.52;;;;;;;5.24;100.00;97027.91;5041046;28;20115;-57
2024/02/23 06:35:14;;;;;;;8.30;2.38;;;;;;;5.25;100.00;97040.25;5031097;28;20102;-57
2024/02/23 06:37:39;;;;;;;6.40;2.55;;;;;;;5.23;100.00;97037.78;5026392;28;20112;-58
2024/02/23 06:40:07;;;;;;;5.32;1.35;;;;;;;5.36;100.00;97046.81;5046658;28;20037;-57
2024/02/23 06:42:33;;;;;;;4.00;1.27;;;;;;;5.22;100.00;97030.78;5051882;28;20031;-57
2024/02/23 06:44:58;;;;;;;3.05;1.17;;;;;;;5.27;100.00;97047.06;5058142;28;20028;-57
2024/02/23 06:47:24;;;;;;;5.47;1.50;;;;;;;5.27;100.00;97033.66;5038634;28;20029;-58
2024/02/23 06:49:50;;;;;;;5.68;1.60;;;;;;;5.36;100.00;97025.34;5058503;28;20051;-59
2024/02/23 06:52:15;;;;;;;1.58;0.65;;;;;;;5.33;100.00;97023.94;5058927;28;20455;-57
2024/02/23 06:54:41;;;;;;;1.92;0.55;;;;;;;5.42;100.00;97027.19;5059444;28;20126;-57
2024/02/23 06:57:07;;;;;;;4.93;0.80;;;;;;;5.46;100.00;97026.53;5052808;28;20362;-57
2024/02/23 06:59:32;;;;;;;2.17;0.80;;;;;;;5.51;100.00;97030.44;5056716;28;20119;-57
2024/02/23 07:01:58;;;;;;;1.55;0.50;;;;;;;5.55;100.00;97028.97;5046126;28;20104;-57
2024/02/23 07:04:25;;;;;;;2.58;0.70;;;;;;;5.51;100.00;97038.50;5038757;28;20184;-57
2024/02/23 07:06:50;;;;;;;1.65;0.25;;;;;;;5.47;100.00;97043.44;5039742;28;20021;-57
2024/02/23 07:09:15;;;;;;;3.50;0.63;;;;;;;5.25;100.00;97027.69;5044699;28;20036;-57
2024/02/23 07:11:43;;;;;;;2.25;0.55;;;;;;;5.34;100.00;97043.50;5043863;28;20033;-57
2024/02/23 07:14:09;;;;;;;3.20;0.50;;;;;;;5.31;100.00;97047.44;5035482;28;20017;-57
2024/02/23 07:16:39;;;;;;;2.35;0.57;;;;;;;5.41;100.00;97049.69;5035788;28;20032;-57
2024/02/23 07:19:04;;;;;;;1.38;0.50;;;;;;;5.49;100.00;97050.25;5037204;28;20029;-58
2024/02/23 07:21:29;;;;;;;3.00;0.45;;;;;;;5.47;100.00;97044.28;5037676;28;20041;-58
2024/02/23 07:23:55;;;;;;;2.58;0.50;;;;;;;5.46;100.00;97044.50;5047927;28;20025;-58
2024/02/23 07:26:22;;;;;;;3.13;0.50;;;;;;;5.54;100.00;97038.88;5050759;28;20368;-57
2024/02/23 07:28:49;;;;;;;1.67;0.40;;;;;;;5.48;100.00;97040.56;5052894;28;20475;-57
2024/02/23 07:31:14;;;;;;;8.45;0.60;;;;;;;5.51;100.00;97049.22;5046519;28;20060;-57
2024/02/23 07:33:40;;;;;;;7.07;0.73;;;;;;;5.47;100.00;97043.44;5048347;28;20078;-57
2024/02/23 07:36:06;;;;;;;2.72;0.88;;;;;;;5.46;100.00;97049.88;5051362;28;20045;-58
2024/02/23 07:38:31;;;;;;;4.70;1.02;;;;;;;5.55;100.00;97053.09;5047955;28;20484;-57
2024/02/23 07:40:58;;;;;;;5.03;0.63;;;;;;;5.67;100.00;97046.84;5057228;28;20060;-58
2024/02/23 07:43:24;;;;;;;3.55;0.63;;;;;;;5.79;100.00;97040.78;5056537;28;20028;-58
2024/02/23 07:45:49;;;;;;;4.07;0.52;;;;;;;5.73;100.00;97037.13;5061642;28;20084;-58
2024/02/23 07:48:15;;;;;;;4.07;1.00;;;;;;;5.85;100.00;97037.25;5045178;28;20146;-58
2024/02/23 07:50:40;;;;;;;5.00;0.90;;;;;;;6.08;100.00;97036.72;5059745;28;20042;-58
2024/02/23 07:53:06;;;;;;;4.28;0.70;;;;;;;6.25;100.00;97040.50;5058094;28;20027;-58
2024/02/23 07:55:31;;;;;;;1.92;0.60;;;;;;;6.60;100.00;97037.28;5042711;28;20032;-58
2024/02/23 07:58:01;;;;;;;4.82;0.77;;;;;;;6.91;100.00;97038.22;5055441;28;20024;-58
2024/02/23 08:00:27;;;;;;;3.65;0.90;;;;;;;7.06;100.00;97041.38;5052454;28;20159;-64
2024/02/23 08:02:56;;;;;;;2.33;0.80;;;;;;;7.31;100.00;97048.50;5049689;28;20477;-63
2024/02/23 08:05:23;;;;;;;1.65;0.55;;;;;;;7.23;100.00;97053.19;5068473;28;20032;-63
2024/02/23 08:07:48;;;;;;;4.55;0.55;;;;;;;7.21;100.00;97044.50;5049299;28;20106;-63
2024/02/23 08:10:14;;;;;;;2.42;0.75;;;;;;;7.05;100.00;97058.56;5048406;28;20108;-64
2024/02/23 08:12:40;;;;;;;1.92;0.70;;;;;;;6.71;100.00;97062.63;5063774;28;20025;-64
2024/02/23 08:15:06;;;;;;;4.93;1.40;;;;;;;6.56;100.00;97062.97;5059537;28;20831;-63
2024/02/23 08:17:31;;;;;;;4.28;1.30;;;;;;;6.09;100.00;97063.34;5044410;28;20021;-63
2024/02/23 08:19:57;;;;;;;5.78;1.75;;;;;;;6.07;100.00;97053.84;5049623;28;20036;-63
2024/02/23 08:22:23;;;;;;;7.10;1.75;;;;;;;6.07;100.00;97065.41;5057618;28;20031;-63
2024/02/23 08:24:49;;;;;;;3.50;0.82;;;;;;;6.19;100.00;97060.16;5031924;28;20035;-63
2024/02/23 08:27:14;;;;;;;4.68;0.98;;;;;;;6.45;100.00;97047.56;5062338;28;20771;-63
2024/02/23 08:29:41;;;;;;;6.93;1.05;;;;;;;6.77;100.00;97057.19;5060092;28;20025;-63
2024/02/23 08:32:07;;;;;;;5.30;0.90;;;;;;;7.33;100.00;97049.13;5049074;28;20982;-64
2024/02/23 08:34:33;;;;;;;3.78;1.10;;;;;;;7.35;100.00;97033.59;5045862;28;20124;-63
2024/02/23 08:39:36;;;;;;;2.20;1.00;;;;;;;8.66;100.00;97037.22;5064368;28;20407;-59
2024/02/23 08:42:03;;;;;;;6.57;1.15;;;;;;;8.27;100.00;97041.38;5057569;28;20091;-54
2024/02/23 08:44:28;;;;;;;5.80;1.30;;;;;;;7.55;100.00;97041.41;5073210;28;20039;-53
2024/02/23 08:46:53;;;;;;;2.00;0.90;;;;;;;7.23;100.00;97039.72;5077132;28;20016;-53
2024/02/23 08:49:19;;;;;;;4.20;1.10;;;;;;;7.00;100.00;97035.03;5061735;28;20418;-54
2024/02/23 08:51:44;;;;;;;3.83;0.85;;;;;;;7.00;100.00;97031.50;5075684;28;20107;-53
2024/02/23 08:54:10;;;;;;;1.95;0.63;;;;;;;6.91;100.00;97049.78;5077717;28;20113;-53
2024/02/23 08:56:42;;;;;;;6.13;0.93;;;;;;;6.90;100.00;97047.34;5074909;28;20025;-53
2024/02/23 08:59:12;;;;;;;4.43;0.60;;;;;;;6.93;100.00;97052.25;5071934;28;20040;-53
2024/02/23 09:01:37;;;;;;;2.97;0.47;;;;;;;7.20;100.00;97060.84;5075840;28;20056;-53
2024/02/23 09:04:02;;;;;;;2.53;1.00;;;;;;;7.05;100.00;97053.19;5071141;28;20518;-54
2024/02/23 09:06:28;;;;;;;2.80;0.40;;;;;;;6.84;100.00;97045.53;5071253;28;20017;-53
2024/02/23 09:08:53;;;;;;;1.48;0.47;;;;;;;6.83;100.00;97062.72;5066163;28;20046;-53
2024/02/23 09:11:18;;;;;;;2.95;0.40;;;;;;;6.87;100.00;97063.91;5067261;28;20033;-54
2024/02/23 09:13:44;;;;;;;3.60;0.70;;;;;;;6.84;100.00;97058.97;5075281;28;20039;-54
2024/02/23 09:16:09;;;;;;;1.55;0.68;;;;;;;6.91;100.00;97057.84;5074929;28;20028;-54
2024/02/23 09:18:35;;;;;;;2.10;0.63;;;;;;;7.21;100.00;97065.19;5070160;28;20029;-53
2024/02/23 09:21:00;;;;;;;3.25;0.52;;;;;;;7.59;100.00;97064.09;5071210;28;20056;-53
2024/02/23 09:23:26;;;;;;;1.95;0.57;;;;;;;7.72;100.00;97061.25;5078058;28;20060;-54
2024/02/23 09:25:51;;;;;;;2.83;0.70;;;;;;;7.80;100.00;97062.78;5070215;28;20020;-54
2024/02/23 09:28:17;;;;;;;4.25;0.85;;;;;;;8.01;100.00;97056.88;5071304;28;20106;-54
2024/02/23 09:30:42;;;;;;;5.85;0.60;;;;;;;8.26;100.00;97050.53;5070657;28;20024;-54
2024/02/23 09:33:08;;;;;;;3.00;0.70;;;;;;;8.47;100.00;97054.56;5071883;28;20024;-54
2024/02/23 09:35:33;;;;;;;2.15;0.57;;;;;;;7.77;100.00;97063.25;5064134;28;20099;-54
2024/02/23 09:37:58;;;;;;;5.18;0.90;;;;;;;8.19;100.00;97055.19;5070304;28;20051;-54
2024/02/23 09:40:24;;;;;;;2.78;0.73;;;;;;;8.12;100.00;97041.81;5075043;28;20032;-54
2024/02/23 09:42:56;;;;;;;1.10;0.50;;;;;;;8.04;100.00;97051.06;5070862;28;20036;-54
2024/02/23 09:45:24;;;;;;;2.05;0.57;;;;;;;8.30;100.00;97051.69;5073988;28;20134;-54
2024/02/23 09:47:50;;;;;;;3.20;0.90;;;;;;;8.81;100.00;97052.94;5065696;28;20044;-54
2024/02/23 09:50:19;;;;;;;2.60;0.50;;;;;;;9.16;100.00;97054.75;5077642;28;20024;-54
2024/02/23 09:52:46;;;;;;;2.20;0.70;;;;;;;9.40;100.00;97061.75;5079677;28;20020;-54
2024/02/23 09:55:11;;;;;;;0.60;0.35;;;;;;;9.58;100.00;97051.84;5074010;28;20032;-54
2024/02/23 09:57:36;;;;;;;2.08;0.57;;;;;;;9.97;100.00;97060.97;5053796;28;20023;-55
2024/02/23 10:00:06;;;;;;;2.42;0.70;;;;;;;11.14;100.00;97062.06;5069165;28;20025;-54
2024/02/23 10:02:32;;;;;;;;;;;;;;;10.87;100.00;97061.13;5064609;28;20123;-54
2024/02/23 10:04:59;;;;;;;1.73;0.30;;;;;;;11.29;100.00;97060.63;5069892;28;20320;-55
2024/02/23 10:07:25;;;;;;;1.85;0.50;;;;;;;11.91;97.49;97056.78;5066093;28;20024;-52
2024/02/23 10:09:50;;;;;;;5.13;1.17;;;;;;;12.31;94.47;97061.78;5067576;28;20178;-52
2024/02/23 10:12:16;;;;;;;2.35;0.47;;;;;;;11.76;89.47;97071.78;5066850;28;20039;-52
2024/02/23 10:14:42;;;;;;;2.53;0.43;;;;;;;11.19;96.49;97062.13;5067492;28;20024;-58
2024/02/23 10:17:08;;;;;;;1.73;0.60;;;;;;;10.83;95.30;97049.97;5068933;28;20035;-60
2024/02/23 10:19:35;;;;;;;2.53;0.60;;;;;;;10.79;100.00;97050.72;5068521;28;20028;-60
2024/02/23 10:22:00;;;;;;;3.15;0.70;;;;;;;10.86;100.00;97035.13;5068197;28;20383;-54
2024/02/23 10:24:26;;;;;;;3.70;0.80;;;;;;;10.56;100.00;97057.97;5067936;28;20091;-52
2024/02/23 10:26:52;;;;;;;2.67;0.40;;;;;;;10.55;100.00;97064.41;5071165;28;20039;-52
2024/02/23 10:29:17;;;;;;;3.40;0.70;;;;;;;10.75;100.00;97083.69;5068930;28;20036;-52
2024/02/23 10:31:47;;;;;;;2.40;0.40;;;;;;;10.72;96.18;97065.25;5067101;28;20086;-52
2024/02/23 10:34:17;;;;;;;2.58;0.40;;;;;;;9.32;100.00;97083.72;5067518;28;20030;-60
2024/02/23 10:36:45;;;;;;;2.05;0.40;;;;;;;8.89;100.00;97092.22;5067930;28;20031;-60
2024/02/23 10:39:11;;;;;;;4.32;0.73;;;;;;;9.66;100.00;97064.97;5049865;28;20058;-60
2024/02/23 10:41:39;;;;;;;3.97;0.40;;;;;;;9.59;100.00;97080.50;5052193;28;20075;-60
2024/02/23 10:44:05;;;;;;;4.03;0.82;;;;;;;9.14;100.00;97083.84;5065604;28;20487;-60
2024/02/23 10:46:34;;;;;;;5.93;0.63;;;;;;;9.30;100.00;97077.75;5064710;28;20024;-60
2024/02/23 10:49:01;;;;;;;4.95;0.57;;;;;;;8.89;100.00;97073.34;5071202;28;20430;-60
2024/02/23 10:51:28;;;;;;;2.63;0.70;;;;;;;9.07;100.00;97061.59;5070741;28;20028;-60
2024/02/23 10:53:53;;;;;;;4.45;0.52;;;;;;;9.76;100.00;97080.56;5072706;28;20031;-60
2024/02/23 10:56:22;;;;;;;4.05;0.80;;;;;;;11.07;100.00;97068.72;5074868;28;20438;-61
2024/02/23 10:58:47;;;;;;;3.13;0.60;;;;;;;11.63;88.66;97072.16;5070216;28;20043;-59
2024/02/23 11:01:14;;;;;;;4.97;0.60;;;;;;;11.29;88.51;97038.97;5066101;28;20151;-60
2024/02/23 11:03:42;;;;;;;2.03;0.60;;;;;;;11.30;87.91;97056.84;5070739;28;20020;-59
2024/02/23 11:06:08;;;;;;;1.50;0.40;;;;;;;10.46;88.58;97050.50;5074754;28;20021;-60
2024/02/23 11:08:34;;;;;;;3.50;1.00;;;;;;;10.44;92.66;97054.50;5066315;28;20055;-62
2024/02/23 11:11:08;;;;;;;9.93;1.15;;;;;;;10.60;90.00;97067.19;5071594;28;20032;-62
2024/02/23 11:13:39;;;;;;;4.65;1.13;;;;;;;9.90;96.79;97062.16;5067367;28;20032;-62
2024/02/23 11:16:23;;;;;;;4.57;1.00;;;;;;;10.59;99.23;97054.75;5053233;28;20039;-62
2024/02/23 11:18:48;;;;;;;3.65;1.30;;;;;;;9.77;97.21;97045.22;5079109;28;20551;-55
2024/02/23 11:21:13;;;;;;;7.28;0.80;;;;;;;9.62;100.00;97055.72;5074130;28;20149;-55
2024/02/23 11:23:43;;;;;;;4.43;1.48;;;;;;;9.84;100.00;97039.66;5075852;28;20055;-55
2024/02/23 11:26:12;;;;;;;5.75;0.90;;;;;;;9.17;100.00;97053.72;5071345;28;20040;-55
2024/02/23 11:28:53;;;;;;;3.63;0.70;;;;;;;8.59;100.00;97049.97;5064758;28;20020;-55
2024/02/23 11:31:20;;;;;;;3.25;0.77;;;;;;;8.61;100.00;97055.16;5076284;28;20060;-55
2024/02/23 11:33:53;;;;;;;4.53;0.60;;;;;;;8.40;100.00;97060.03;5080284;28;20028;-55
2024/02/23 11:36:33;;;;;;;2.70;0.65;;;;;;;8.75;100.00;97048.47;5072583;28;20070;-55
2024/02/23 11:39:00;;;;;;;3.95;0.98;;;;;;;8.83;100.00;97052.69;5077278;28;20032;-55
2024/02/23 11:41:27;;;;;;;3.90;0.80;;;;;;;8.83;100.00;97053.53;5070252;28;20748;-55